sensor_id;sensor_type;location;lat;lon;timestamp;P1;durP1;ratioP1;P2;durP2;ratioP2
45077;SDS011;60508;42.622;25.416;2022-09-09T00:00:39;6.55;;;2.45;;
45077;SDS011;60508;42.622;25.416;2022-09-09T00:03:12;5.30;;;2.40;;
45077;SDS011;60508;42.622;25.416;2022-09-09T00:11:12;3.95;;;3.08;;
45077;SDS011;60508;42.622;25.416;2022-09-09T00:13:46;13.30;;;3.50;;
45077;SDS011;60508;42.622;25.416;2022-09-09T00:16:21;2.97;;;2.63;;
45077;SDS011;60508;42.622;25.416;2022-09-09T00:21:35;3.95;;;2.78;;
45077;SDS011;60508;42.622;25.416;2022-09-09T00:24:24;3.55;;;2.90;;
45077;SDS011;60508;42.622;25.416;2022-09-09T00:27:04;4.25;;;2.42;;
45077;SDS011;60508;42.622;25.416;2022-09-09T00:32:14;4.65;;;3.15;;
45077;SDS011;60508;42.622;25.416;2022-09-09T00:34:52;4.65;;;2.78;;
45077;SDS011;60508;42.622;25.416;2022-09-09T00:37:22;2.97;;;2.70;;
45077;SDS011;60508;42.622;25.416;2022-09-09T00:39:50;13.23;;;2.60;;
45077;SDS011;60508;42.622;25.416;2022-09-09T00:42:30;4.40;;;2.67;;
45077;SDS011;60508;42.622;25.416;2022-09-09T00:45:09;5.82;;;2.42;;
45077;SDS011;60508;42.622;25.416;2022-09-09T00:47:49;5.85;;;2.83;;
45077;SDS011;60508;42.622;25.416;2022-09-09T00:53:35;6.43;;;3.50;;
45077;SDS011;60508;42.622;25.416;2022-09-09T00:56:14;3.38;;;2.95;;
45077;SDS011;60508;42.622;25.416;2022-09-09T01:01:36;5.38;;;3.72;;
45077;SDS011;60508;42.622;25.416;2022-09-09T01:04:04;3.83;;;3.42;;
45077;SDS011;60508;42.622;25.416;2022-09-09T01:06:42;7.13;;;4.25;;
45077;SDS011;60508;42.622;25.416;2022-09-09T01:11:43;5.18;;;3.28;;
45077;SDS011;60508;42.622;25.416;2022-09-09T01:17:01;7.00;;;3.78;;
45077;SDS011;60508;42.622;25.416;2022-09-09T01:19:55;4.18;;;3.78;;
45077;SDS011;60508;42.622;25.416;2022-09-09T01:22:29;9.82;;;3.50;;
45077;SDS011;60508;42.622;25.416;2022-09-09T01:25:20;15.00;;;3.95;;
45077;SDS011;60508;42.622;25.416;2022-09-09T01:28:00;8.27;;;3.50;;
45077;SDS011;60508;42.622;25.416;2022-09-09T01:30:31;4.18;;;3.67;;
45077;SDS011;60508;42.622;25.416;2022-09-09T01:33:00;11.38;;;3.97;;
45077;SDS011;60508;42.622;25.416;2022-09-09T01:37:58;5.28;;;4.22;;
45077;SDS011;60508;42.622;25.416;2022-09-09T01:40:25;5.70;;;3.00;;
45077;SDS011;60508;42.622;25.416;2022-09-09T01:42:53;5.18;;;3.42;;
45077;SDS011;60508;42.622;25.416;2022-09-09T01:45:20;4.75;;;3.10;;
45077;SDS011;60508;42.622;25.416;2022-09-09T01:47:48;11.88;;;3.50;;
45077;SDS011;60508;42.622;25.416;2022-09-09T01:50:19;3.58;;;2.92;;
45077;SDS011;60508;42.622;25.416;2022-09-09T01:52:48;7.55;;;3.55;;
45077;SDS011;60508;42.622;25.416;2022-09-09T01:55:23;6.88;;;3.08;;
45077;SDS011;60508;42.622;25.416;2022-09-09T01:58:00;5.20;;;3.58;;
45077;SDS011;60508;42.622;25.416;2022-09-09T02:03:56;3.70;;;3.40;;
45077;SDS011;60508;42.622;25.416;2022-09-09T02:06:27;3.40;;;3.00;;
45077;SDS011;60508;42.622;25.416;2022-09-09T02:09:09;19.13;;;5.22;;
45077;SDS011;60508;42.622;25.416;2022-09-09T02:11:38;3.50;;;3.20;;
45077;SDS011;60508;42.622;25.416;2022-09-09T02:14:14;4.85;;;3.85;;
45077;SDS011;60508;42.622;25.416;2022-09-09T02:16:48;3.45;;;3.22;;
45077;SDS011;60508;42.622;25.416;2022-09-09T02:19:21;15.68;;;3.95;;
45077;SDS011;60508;42.622;25.416;2022-09-09T02:22:11;5.95;;;3.70;;
45077;SDS011;60508;42.622;25.416;2022-09-09T02:24:38;3.78;;;3.40;;
45077;SDS011;60508;42.622;25.416;2022-09-09T02:27:20;4.88;;;3.47;;
45077;SDS011;60508;42.622;25.416;2022-09-09T02:29:47;10.80;;;2.97;;
45077;SDS011;60508;42.622;25.416;2022-09-09T02:32:22;7.00;;;2.60;;
45077;SDS011;60508;42.622;25.416;2022-09-09T02:34:55;7.25;;;3.42;;
45077;SDS011;60508;42.622;25.416;2022-09-09T02:37:26;6.75;;;3.15;;
45077;SDS011;60508;42.622;25.416;2022-09-09T02:39:57;3.55;;;2.90;;
45077;SDS011;60508;42.622;25.416;2022-09-09T02:42:24;3.53;;;2.83;;
45077;SDS011;60508;42.622;25.416;2022-09-09T02:44:52;5.40;;;3.05;;
45077;SDS011;60508;42.622;25.416;2022-09-09T02:47:36;3.75;;;3.22;;
45077;SDS011;60508;42.622;25.416;2022-09-09T02:55:45;7.18;;;3.20;;
45077;SDS011;60508;42.622;25.416;2022-09-09T02:58:26;5.07;;;2.60;;
45077;SDS011;60508;42.622;25.416;2022-09-09T03:00:57;3.40;;;2.50;;
45077;SDS011;60508;42.622;25.416;2022-09-09T03:03:25;8.57;;;2.78;;
45077;SDS011;60508;42.622;25.416;2022-09-09T03:05:52;11.98;;;2.85;;
45077;SDS011;60508;42.622;25.416;2022-09-09T03:08:18;4.32;;;2.80;;
45077;SDS011;60508;42.622;25.416;2022-09-09T03:10:45;5.93;;;2.95;;
45077;SDS011;60508;42.622;25.416;2022-09-09T03:13:13;9.87;;;2.83;;
45077;SDS011;60508;42.622;25.416;2022-09-09T03:15:41;4.50;;;3.33;;
45077;SDS011;60508;42.622;25.416;2022-09-09T03:18:12;4.10;;;3.33;;
45077;SDS011;60508;42.622;25.416;2022-09-09T03:20:39;3.47;;;2.92;;
45077;SDS011;60508;42.622;25.416;2022-09-09T03:23:07;3.67;;;2.88;;
45077;SDS011;60508;42.622;25.416;2022-09-09T03:25:33;5.07;;;2.63;;
45077;SDS011;60508;42.622;25.416;2022-09-09T03:27:59;3.42;;;2.95;;
45077;SDS011;60508;42.622;25.416;2022-09-09T03:30:26;6.88;;;3.70;;
45077;SDS011;60508;42.622;25.416;2022-09-09T03:32:55;3.38;;;3.03;;
45077;SDS011;60508;42.622;25.416;2022-09-09T03:35:25;12.23;;;3.38;;
45077;SDS011;60508;42.622;25.416;2022-09-09T03:37:51;7.82;;;4.28;;
45077;SDS011;60508;42.622;25.416;2022-09-09T03:40:18;3.13;;;2.70;;
45077;SDS011;60508;42.622;25.416;2022-09-09T03:42:45;4.75;;;3.53;;
45077;SDS011;60508;42.622;25.416;2022-09-09T03:45:11;7.28;;;3.20;;
45077;SDS011;60508;42.622;25.416;2022-09-09T03:47:40;5.43;;;3.95;;
45077;SDS011;60508;42.622;25.416;2022-09-09T03:50:07;7.97;;;3.53;;
45077;SDS011;60508;42.622;25.416;2022-09-09T03:52:38;4.35;;;4.03;;
45077;SDS011;60508;42.622;25.416;2022-09-09T03:55:09;9.25;;;3.55;;
45077;SDS011;60508;42.622;25.416;2022-09-09T03:57:36;4.60;;;3.83;;
45077;SDS011;60508;42.622;25.416;2022-09-09T04:00:06;4.10;;;3.70;;
45077;SDS011;60508;42.622;25.416;2022-09-09T04:02:42;4.72;;;3.42;;
45077;SDS011;60508;42.622;25.416;2022-09-09T04:05:11;7.70;;;3.25;;
45077;SDS011;60508;42.622;25.416;2022-09-09T04:07:41;5.60;;;4.88;;
45077;SDS011;60508;42.622;25.416;2022-09-09T04:10:07;6.30;;;3.50;;
45077;SDS011;60508;42.622;25.416;2022-09-09T04:12:36;7.18;;;3.75;;
45077;SDS011;60508;42.622;25.416;2022-09-09T04:15:02;4.45;;;3.95;;
45077;SDS011;60508;42.622;25.416;2022-09-09T04:17:29;4.13;;;3.60;;
45077;SDS011;60508;42.622;25.416;2022-09-09T04:19:56;6.93;;;3.30;;
45077;SDS011;60508;42.622;25.416;2022-09-09T04:22:23;12.35;;;3.90;;
45077;SDS011;60508;42.622;25.416;2022-09-09T04:24:49;3.67;;;3.38;;
45077;SDS011;60508;42.622;25.416;2022-09-09T04:27:17;8.65;;;3.15;;
45077;SDS011;60508;42.622;25.416;2022-09-09T04:29:43;10.10;;;3.42;;
45077;SDS011;60508;42.622;25.416;2022-09-09T04:32:09;10.45;;;3.55;;
45077;SDS011;60508;42.622;25.416;2022-09-09T04:34:35;8.90;;;3.92;;
45077;SDS011;60508;42.622;25.416;2022-09-09T04:37:01;5.80;;;3.70;;
45077;SDS011;60508;42.622;25.416;2022-09-09T04:39:27;5.95;;;4.05;;
45077;SDS011;60508;42.622;25.416;2022-09-09T04:41:54;10.63;;;3.60;;
45077;SDS011;60508;42.622;25.416;2022-09-09T04:44:21;16.98;;;3.88;;
45077;SDS011;60508;42.622;25.416;2022-09-09T04:46:47;10.25;;;4.13;;
45077;SDS011;60508;42.622;25.416;2022-09-09T04:49:13;7.00;;;3.67;;
45077;SDS011;60508;42.622;25.416;2022-09-09T04:51:39;5.82;;;3.53;;
45077;SDS011;60508;42.622;25.416;2022-09-09T04:54:05;7.65;;;4.65;;
45077;SDS011;60508;42.622;25.416;2022-09-09T04:56:31;8.27;;;4.93;;
45077;SDS011;60508;42.622;25.416;2022-09-09T04:59:00;15.07;;;5.47;;
45077;SDS011;60508;42.622;25.416;2022-09-09T05:01:44;18.13;;;5.20;;
45077;SDS011;60508;42.622;25.416;2022-09-09T05:04:11;11.07;;;4.43;;
45077;SDS011;60508;42.622;25.416;2022-09-09T05:06:37;6.53;;;2.95;;
45077;SDS011;60508;42.622;25.416;2022-09-09T05:09:04;4.68;;;3.58;;
45077;SDS011;60508;42.622;25.416;2022-09-09T05:11:30;16.98;;;7.53;;
45077;SDS011;60508;42.622;25.416;2022-09-09T05:14:03;26.27;;;8.63;;
45077;SDS011;60508;42.622;25.416;2022-09-09T05:16:30;16.92;;;7.60;;
45077;SDS011;60508;42.622;25.416;2022-09-09T05:18:57;29.50;;;8.43;;
45077;SDS011;60508;42.622;25.416;2022-09-09T05:21:27;22.10;;;8.20;;
45077;SDS011;60508;42.622;25.416;2022-09-09T05:23:54;9.23;;;5.53;;
45077;SDS011;60508;42.622;25.416;2022-09-09T05:26:21;7.15;;;4.80;;
45077;SDS011;60508;42.622;25.416;2022-09-09T05:28:50;19.20;;;5.63;;
45077;SDS011;60508;42.622;25.416;2022-09-09T05:31:17;8.30;;;5.57;;
45077;SDS011;60508;42.622;25.416;2022-09-09T05:33:46;13.43;;;5.63;;
45077;SDS011;60508;42.622;25.416;2022-09-09T05:36:15;8.68;;;6.07;;
45077;SDS011;60508;42.622;25.416;2022-09-09T05:38:43;9.90;;;5.88;;
45077;SDS011;60508;42.622;25.416;2022-09-09T05:41:10;9.43;;;5.55;;
45077;SDS011;60508;42.622;25.416;2022-09-09T05:43:38;10.23;;;5.88;;
45077;SDS011;60508;42.622;25.416;2022-09-09T05:46:08;10.88;;;5.40;;
45077;SDS011;60508;42.622;25.416;2022-09-09T05:48:37;14.95;;;5.22;;
45077;SDS011;60508;42.622;25.416;2022-09-09T05:51:05;10.95;;;5.75;;
45077;SDS011;60508;42.622;25.416;2022-09-09T05:53:34;6.95;;;4.95;;
45077;SDS011;60508;42.622;25.416;2022-09-09T05:56:08;4.70;;;4.20;;
45077;SDS011;60508;42.622;25.416;2022-09-09T05:58:36;10.43;;;4.47;;
45077;SDS011;60508;42.622;25.416;2022-09-09T06:01:09;9.98;;;4.70;;
45077;SDS011;60508;42.622;25.416;2022-09-09T06:03:38;15.32;;;4.65;;
45077;SDS011;60508;42.622;25.416;2022-09-09T06:06:07;11.02;;;6.63;;
45077;SDS011;60508;42.622;25.416;2022-09-09T06:08:35;10.43;;;4.80;;
45077;SDS011;60508;42.622;25.416;2022-09-09T06:11:03;15.43;;;4.75;;
45077;SDS011;60508;42.622;25.416;2022-09-09T06:13:32;18.33;;;5.60;;
45077;SDS011;60508;42.622;25.416;2022-09-09T06:15:58;6.45;;;5.50;;
45077;SDS011;60508;42.622;25.416;2022-09-09T06:18:26;10.60;;;4.88;;
45077;SDS011;60508;42.622;25.416;2022-09-09T06:21:00;9.68;;;5.65;;
45077;SDS011;60508;42.622;25.416;2022-09-09T06:23:29;14.57;;;5.47;;
45077;SDS011;60508;42.622;25.416;2022-09-09T06:26:00;16.02;;;5.00;;
45077;SDS011;60508;42.622;25.416;2022-09-09T06:28:35;8.98;;;6.15;;
45077;SDS011;60508;42.622;25.416;2022-09-09T06:31:06;11.02;;;6.70;;
45077;SDS011;60508;42.622;25.416;2022-09-09T06:33:36;7.18;;;4.03;;
45077;SDS011;60508;42.622;25.416;2022-09-09T06:36:14;10.63;;;4.50;;
45077;SDS011;60508;42.622;25.416;2022-09-09T06:38:43;15.55;;;5.22;;
45077;SDS011;60508;42.622;25.416;2022-09-09T06:41:12;9.25;;;4.28;;
45077;SDS011;60508;42.622;25.416;2022-09-09T06:43:40;12.07;;;3.83;;
45077;SDS011;60508;42.622;25.416;2022-09-09T06:48:33;14.52;;;3.60;;
45077;SDS011;60508;42.622;25.416;2022-09-09T06:51:06;5.95;;;3.72;;
45077;SDS011;60508;42.622;25.416;2022-09-09T06:53:37;7.25;;;3.72;;
45077;SDS011;60508;42.622;25.416;2022-09-09T06:58:37;5.80;;;2.40;;
45077;SDS011;60508;42.622;25.416;2022-09-09T07:01:14;9.75;;;3.92;;
45077;SDS011;60508;42.622;25.416;2022-09-09T07:03:42;4.72;;;3.25;;
45077;SDS011;60508;42.622;25.416;2022-09-09T07:06:16;6.13;;;2.97;;
45077;SDS011;60508;42.622;25.416;2022-09-09T07:08:52;4.68;;;2.25;;
45077;SDS011;60508;42.622;25.416;2022-09-09T07:11:23;7.60;;;1.70;;
45077;SDS011;60508;42.622;25.416;2022-09-09T07:13:52;2.78;;;1.95;;
45077;SDS011;60508;42.622;25.416;2022-09-09T07:16:20;2.88;;;2.60;;
45077;SDS011;60508;42.622;25.416;2022-09-09T07:18:51;6.85;;;3.40;;
45077;SDS011;60508;42.622;25.416;2022-09-09T07:21:18;8.80;;;3.80;;
45077;SDS011;60508;42.622;25.416;2022-09-09T07:23:46;11.25;;;5.75;;
45077;SDS011;60508;42.622;25.416;2022-09-09T07:26:13;8.88;;;3.10;;
45077;SDS011;60508;42.622;25.416;2022-09-09T07:28:40;14.85;;;5.90;;
45077;SDS011;60508;42.622;25.416;2022-09-09T07:31:12;17.08;;;11.38;;
45077;SDS011;60508;42.622;25.416;2022-09-09T07:33:49;13.95;;;7.30;;
45077;SDS011;60508;42.622;25.416;2022-09-09T07:36:16;10.82;;;5.78;;
45077;SDS011;60508;42.622;25.416;2022-09-09T07:38:48;16.42;;;6.10;;
45077;SDS011;60508;42.622;25.416;2022-09-09T07:43:51;11.40;;;7.32;;
45077;SDS011;60508;42.622;25.416;2022-09-09T07:46:20;9.20;;;7.45;;
45077;SDS011;60508;42.622;25.416;2022-09-09T07:48:50;9.57;;;3.85;;
45077;SDS011;60508;42.622;25.416;2022-09-09T07:51:21;8.65;;;5.25;;
45077;SDS011;60508;42.622;25.416;2022-09-09T07:53:55;8.60;;;3.80;;
45077;SDS011;60508;42.622;25.416;2022-09-09T07:56:25;12.73;;;4.85;;
45077;SDS011;60508;42.622;25.416;2022-09-09T07:58:53;10.93;;;6.10;;
45077;SDS011;60508;42.622;25.416;2022-09-09T08:01:34;8.80;;;4.07;;
45077;SDS011;60508;42.622;25.416;2022-09-09T08:04:05;12.57;;;7.20;;
45077;SDS011;60508;42.622;25.416;2022-09-09T08:06:43;4.07;;;3.67;;
45077;SDS011;60508;42.622;25.416;2022-09-09T08:09:12;14.10;;;4.97;;
45077;SDS011;60508;42.622;25.416;2022-09-09T08:11:39;9.65;;;3.38;;
45077;SDS011;60508;42.622;25.416;2022-09-09T08:14:07;12.77;;;5.85;;
45077;SDS011;60508;42.622;25.416;2022-09-09T08:16:35;18.50;;;7.03;;
45077;SDS011;60508;42.622;25.416;2022-09-09T08:19:05;11.88;;;6.07;;
45077;SDS011;60508;42.622;25.416;2022-09-09T08:21:33;8.98;;;2.00;;
45077;SDS011;60508;42.622;25.416;2022-09-09T08:24:00;3.95;;;3.50;;
45077;SDS011;60508;42.622;25.416;2022-09-09T08:26:28;5.70;;;3.75;;
45077;SDS011;60508;42.622;25.416;2022-09-09T08:28:57;4.25;;;3.85;;
45077;SDS011;60508;42.622;25.416;2022-09-09T08:31:26;7.97;;;4.38;;
45077;SDS011;60508;42.622;25.416;2022-09-09T08:34:00;4.65;;;2.85;;
45077;SDS011;60508;42.622;25.416;2022-09-09T08:36:31;5.15;;;1.90;;
45077;SDS011;60508;42.622;25.416;2022-09-09T08:38:59;6.70;;;3.60;;
45077;SDS011;60508;42.622;25.416;2022-09-09T08:57:53;9.45;;;2.90;;
45077;SDS011;60508;42.622;25.416;2022-09-09T09:00:27;4.47;;;3.85;;
45077;SDS011;60508;42.622;25.416;2022-09-09T09:05:28;6.03;;;3.60;;
45077;SDS011;60508;42.622;25.416;2022-09-09T09:08:06;5.45;;;2.47;;
45077;SDS011;60508;42.622;25.416;2022-09-09T09:10:39;3.85;;;1.90;;
45077;SDS011;60508;42.622;25.416;2022-09-09T09:13:22;7.30;;;2.20;;
45077;SDS011;60508;42.622;25.416;2022-09-09T09:18:49;5.25;;;2.40;;
45077;SDS011;60508;42.622;25.416;2022-09-09T09:21:20;4.90;;;3.67;;
45077;SDS011;60508;42.622;25.416;2022-09-09T09:26:25;5.80;;;1.80;;
45077;SDS011;60508;42.622;25.416;2022-09-09T09:29:15;5.82;;;1.63;;
45077;SDS011;60508;42.622;25.416;2022-09-09T09:31:49;2.53;;;1.80;;
45077;SDS011;60508;42.622;25.416;2022-09-09T09:34:18;2.47;;;2.17;;
45077;SDS011;60508;42.622;25.416;2022-09-09T09:36:52;3.67;;;1.83;;
45077;SDS011;60508;42.622;25.416;2022-09-09T09:39:29;8.02;;;1.90;;
45077;SDS011;60508;42.622;25.416;2022-09-09T09:42:07;6.70;;;2.05;;
45077;SDS011;60508;42.622;25.416;2022-09-09T09:44:40;2.28;;;1.55;;
45077;SDS011;60508;42.622;25.416;2022-09-09T09:47:20;3.25;;;1.92;;
45077;SDS011;60508;42.622;25.416;2022-09-09T09:50:18;7.75;;;2.92;;
45077;SDS011;60508;42.622;25.416;2022-09-09T09:52:57;5.68;;;2.28;;
45077;SDS011;60508;42.622;25.416;2022-09-09T09:55:33;5.55;;;2.33;;
45077;SDS011;60508;42.622;25.416;2022-09-09T09:58:03;5.30;;;1.85;;
45077;SDS011;60508;42.622;25.416;2022-09-09T10:00:31;3.15;;;1.95;;
45077;SDS011;60508;42.622;25.416;2022-09-09T10:03:12;5.80;;;2.30;;
45077;SDS011;60508;42.622;25.416;2022-09-09T10:05:47;3.90;;;1.83;;
45077;SDS011;60508;42.622;25.416;2022-09-09T10:08:14;1.77;;;1.50;;
45077;SDS011;60508;42.622;25.416;2022-09-09T10:19:28;11.85;;;2.00;;
45077;SDS011;60508;42.622;25.416;2022-09-09T10:35:12;3.72;;;2.33;;
45077;SDS011;60508;42.622;25.416;2022-09-09T10:45:58;7.47;;;1.92;;
45077;SDS011;60508;42.622;25.416;2022-09-09T10:51:52;5.63;;;1.63;;
45077;SDS011;60508;42.622;25.416;2022-09-09T10:54:49;2.50;;;1.70;;
45077;SDS011;60508;42.622;25.416;2022-09-09T10:57:31;5.10;;;1.88;;
45077;SDS011;60508;42.622;25.416;2022-09-09T11:00:03;3.15;;;2.00;;
45077;SDS011;60508;42.622;25.416;2022-09-09T11:02:59;5.25;;;2.15;;
45077;SDS011;60508;42.622;25.416;2022-09-09T11:05:31;5.20;;;2.03;;
45077;SDS011;60508;42.622;25.416;2022-09-09T11:07:58;3.78;;;1.70;;
45077;SDS011;60508;42.622;25.416;2022-09-09T11:10:46;2.13;;;1.92;;
45077;SDS011;60508;42.622;25.416;2022-09-09T11:18:47;5.25;;;1.67;;
45077;SDS011;60508;42.622;25.416;2022-09-09T11:21:18;4.60;;;1.67;;
45077;SDS011;60508;42.622;25.416;2022-09-09T11:23:54;7.97;;;2.28;;
45077;SDS011;60508;42.622;25.416;2022-09-09T11:26:32;3.88;;;1.75;;
45077;SDS011;60508;42.622;25.416;2022-09-09T11:34:53;13.07;;;2.15;;
45077;SDS011;60508;42.622;25.416;2022-09-09T11:40:31;6.88;;;2.10;;
45077;SDS011;60508;42.622;25.416;2022-09-09T11:45:51;4.20;;;1.50;;
45077;SDS011;60508;42.622;25.416;2022-09-09T11:48:26;4.80;;;1.55;;
45077;SDS011;60508;42.622;25.416;2022-09-09T11:51:05;1.63;;;1.30;;
45077;SDS011;60508;42.622;25.416;2022-09-09T11:53:34;3.13;;;1.60;;
45077;SDS011;60508;42.622;25.416;2022-09-09T11:56:03;2.38;;;1.60;;
45077;SDS011;60508;42.622;25.416;2022-09-09T11:58:34;5.15;;;1.70;;
45077;SDS011;60508;42.622;25.416;2022-09-09T12:01:14;5.10;;;1.40;;
45077;SDS011;60508;42.622;25.416;2022-09-09T12:06:28;2.20;;;1.60;;
45077;SDS011;60508;42.622;25.416;2022-09-09T12:09:10;6.28;;;1.90;;
45077;SDS011;60508;42.622;25.416;2022-09-09T12:11:40;2.50;;;1.58;;
45077;SDS011;60508;42.622;25.416;2022-09-09T12:14:20;7.78;;;2.03;;
45077;SDS011;60508;42.622;25.416;2022-09-09T12:16:48;4.63;;;1.70;;
45077;SDS011;60508;42.622;25.416;2022-09-09T12:19:15;4.50;;;1.92;;
45077;SDS011;60508;42.622;25.416;2022-09-09T12:21:48;5.22;;;1.95;;
45077;SDS011;60508;42.622;25.416;2022-09-09T12:24:18;2.80;;;1.55;;
45077;SDS011;60508;42.622;25.416;2022-09-09T12:26:52;5.00;;;1.90;;
45077;SDS011;60508;42.622;25.416;2022-09-09T12:34:41;7.55;;;2.15;;
45077;SDS011;60508;42.622;25.416;2022-09-09T12:39:59;4.70;;;2.28;;
45077;SDS011;60508;42.622;25.416;2022-09-09T12:42:28;2.42;;;1.42;;
45077;SDS011;60508;42.622;25.416;2022-09-09T12:44:56;1.45;;;1.35;;
45077;SDS011;60508;42.622;25.416;2022-09-09T12:50:01;2.55;;;1.45;;
45077;SDS011;60508;42.622;25.416;2022-09-09T12:52:31;2.40;;;1.63;;
45077;SDS011;60508;42.622;25.416;2022-09-09T12:55:02;4.80;;;1.55;;
45077;SDS011;60508;42.622;25.416;2022-09-09T12:57:34;2.88;;;1.85;;
45077;SDS011;60508;42.622;25.416;2022-09-09T13:00:05;2.83;;;1.52;;
45077;SDS011;60508;42.622;25.416;2022-09-09T13:02:46;2.42;;;1.52;;
45077;SDS011;60508;42.622;25.416;2022-09-09T13:05:22;6.85;;;1.50;;
45077;SDS011;60508;42.622;25.416;2022-09-09T13:08:03;2.30;;;1.30;;
45077;SDS011;60508;42.622;25.416;2022-09-09T13:10:37;8.93;;;1.77;;
45077;SDS011;60508;42.622;25.416;2022-09-09T13:13:29;3.33;;;1.92;;
45077;SDS011;60508;42.622;25.416;2022-09-09T13:15:56;9.38;;;1.60;;
45077;SDS011;60508;42.622;25.416;2022-09-09T13:18:24;3.50;;;1.77;;
45077;SDS011;60508;42.622;25.416;2022-09-09T13:20:54;5.93;;;1.70;;
45077;SDS011;60508;42.622;25.416;2022-09-09T13:23:22;10.93;;;1.93;;
45077;SDS011;60508;42.622;25.416;2022-09-09T13:25:58;14.50;;;1.80;;
45077;SDS011;60508;42.622;25.416;2022-09-09T13:28:27;2.72;;;2.13;;
45077;SDS011;60508;42.622;25.416;2022-09-09T13:30:59;11.38;;;1.73;;
45077;SDS011;60508;42.622;25.416;2022-09-09T13:33:31;8.18;;;1.60;;
45077;SDS011;60508;42.622;25.416;2022-09-09T13:36:06;1.95;;;1.67;;
45077;SDS011;60508;42.622;25.416;2022-09-09T13:38:38;4.43;;;2.08;;
45077;SDS011;60508;42.622;25.416;2022-09-09T13:41:19;3.15;;;1.90;;
45077;SDS011;60508;42.622;25.416;2022-09-09T13:43:49;4.13;;;2.22;;
45077;SDS011;60508;42.622;25.416;2022-09-09T13:49:23;4.07;;;2.10;;
45077;SDS011;60508;42.622;25.416;2022-09-09T13:51:49;6.85;;;1.80;;
45077;SDS011;60508;42.622;25.416;2022-09-09T13:54:19;5.72;;;2.00;;
45077;SDS011;60508;42.622;25.416;2022-09-09T13:56:46;10.40;;;1.63;;
45077;SDS011;60508;42.622;25.416;2022-09-09T13:59:13;2.95;;;2.03;;
45077;SDS011;60508;42.622;25.416;2022-09-09T14:01:41;6.90;;;1.80;;
45077;SDS011;60508;42.622;25.416;2022-09-09T14:04:08;5.38;;;1.83;;
45077;SDS011;60508;42.622;25.416;2022-09-09T14:06:35;5.05;;;1.45;;
45077;SDS011;60508;42.622;25.416;2022-09-09T14:09:04;3.75;;;2.03;;
45077;SDS011;60508;42.622;25.416;2022-09-09T14:11:30;6.13;;;1.80;;
45077;SDS011;60508;42.622;25.416;2022-09-09T14:13:56;1.88;;;1.77;;
45077;SDS011;60508;42.622;25.416;2022-09-09T14:16:23;13.02;;;1.88;;
45077;SDS011;60508;42.622;25.416;2022-09-09T14:18:49;3.20;;;1.95;;
45077;SDS011;60508;42.622;25.416;2022-09-09T14:21:17;5.63;;;2.00;;
45077;SDS011;60508;42.622;25.416;2022-09-09T14:23:43;1.70;;;1.60;;
45077;SDS011;60508;42.622;25.416;2022-09-09T14:26:09;3.45;;;2.10;;
45077;SDS011;60508;42.622;25.416;2022-09-09T14:28:36;2.92;;;1.73;;
45077;SDS011;60508;42.622;25.416;2022-09-09T14:31:03;2.22;;;1.73;;
45077;SDS011;60508;42.622;25.416;2022-09-09T14:33:29;16.95;;;3.00;;
45077;SDS011;60508;42.622;25.416;2022-09-09T14:35:56;5.63;;;2.20;;
45077;SDS011;60508;42.622;25.416;2022-09-09T14:38:30;4.00;;;1.95;;
45077;SDS011;60508;42.622;25.416;2022-09-09T14:41:00;6.25;;;2.30;;
45077;SDS011;60508;42.622;25.416;2022-09-09T14:43:28;9.52;;;3.03;;
45077;SDS011;60508;42.622;25.416;2022-09-09T14:45:55;14.30;;;2.22;;
45077;SDS011;60508;42.622;25.416;2022-09-09T14:48:21;5.50;;;1.90;;
45077;SDS011;60508;42.622;25.416;2022-09-09T14:50:47;4.70;;;1.67;;
45077;SDS011;60508;42.622;25.416;2022-09-09T14:53:14;5.38;;;1.98;;
45077;SDS011;60508;42.622;25.416;2022-09-09T14:55:42;4.60;;;2.85;;
45077;SDS011;60508;42.622;25.416;2022-09-09T14:58:08;9.05;;;2.22;;
45077;SDS011;60508;42.622;25.416;2022-09-09T15:00:33;2.58;;;1.95;;
45077;SDS011;60508;42.622;25.416;2022-09-09T15:03:00;5.80;;;2.20;;
45077;SDS011;60508;42.622;25.416;2022-09-09T15:05:26;7.00;;;2.67;;
45077;SDS011;60508;42.622;25.416;2022-09-09T15:07:53;7.03;;;2.00;;
45077;SDS011;60508;42.622;25.416;2022-09-09T15:10:19;4.22;;;1.80;;
45077;SDS011;60508;42.622;25.416;2022-09-09T15:12:46;6.22;;;2.47;;
45077;SDS011;60508;42.622;25.416;2022-09-09T15:15:12;8.63;;;2.30;;
45077;SDS011;60508;42.622;25.416;2022-09-09T15:17:38;5.82;;;2.58;;
45077;SDS011;60508;42.622;25.416;2022-09-09T15:20:05;14.75;;;3.63;;
45077;SDS011;60508;42.622;25.416;2022-09-09T15:22:32;10.30;;;2.00;;
45077;SDS011;60508;42.622;25.416;2022-09-09T15:24:58;8.43;;;2.60;;
45077;SDS011;60508;42.622;25.416;2022-09-09T15:27:24;7.50;;;2.60;;
45077;SDS011;60508;42.622;25.416;2022-09-09T15:29:50;3.38;;;2.78;;
45077;SDS011;60508;42.622;25.416;2022-09-09T15:32:17;9.80;;;3.15;;
45077;SDS011;60508;42.622;25.416;2022-09-09T15:34:43;6.45;;;3.08;;
45077;SDS011;60508;42.622;25.416;2022-09-09T15:37:10;6.03;;;2.85;;
45077;SDS011;60508;42.622;25.416;2022-09-09T15:39:39;4.20;;;2.53;;
45077;SDS011;60508;42.622;25.416;2022-09-09T15:42:06;7.85;;;2.75;;
45077;SDS011;60508;42.622;25.416;2022-09-09T15:44:42;2.95;;;2.38;;
45077;SDS011;60508;42.622;25.416;2022-09-09T15:47:12;3.78;;;2.30;;
45077;SDS011;60508;42.622;25.416;2022-09-09T15:49:38;2.83;;;2.22;;
45077;SDS011;60508;42.622;25.416;2022-09-09T15:52:05;5.05;;;2.63;;
45077;SDS011;60508;42.622;25.416;2022-09-09T15:54:32;6.47;;;3.00;;
45077;SDS011;60508;42.622;25.416;2022-09-09T15:57:00;5.95;;;2.25;;
45077;SDS011;60508;42.622;25.416;2022-09-09T15:59:29;16.63;;;2.55;;
45077;SDS011;60508;42.622;25.416;2022-09-09T16:01:57;6.15;;;2.13;;
45077;SDS011;60508;42.622;25.416;2022-09-09T16:04:26;10.48;;;2.53;;
45077;SDS011;60508;42.622;25.416;2022-09-09T16:06:55;7.25;;;2.83;;
45077;SDS011;60508;42.622;25.416;2022-09-09T16:09:27;17.65;;;2.75;;
45077;SDS011;60508;42.622;25.416;2022-09-09T16:11:55;6.07;;;2.83;;
45077;SDS011;60508;42.622;25.416;2022-09-09T16:14:23;9.15;;;2.78;;
45077;SDS011;60508;42.622;25.416;2022-09-09T16:16:51;8.55;;;2.58;;
45077;SDS011;60508;42.622;25.416;2022-09-09T16:19:17;5.72;;;2.35;;
45077;SDS011;60508;42.622;25.416;2022-09-09T16:21:45;6.05;;;2.50;;
45077;SDS011;60508;42.622;25.416;2022-09-09T16:24:13;4.75;;;2.40;;
45077;SDS011;60508;42.622;25.416;2022-09-09T16:26:42;3.88;;;2.95;;
45077;SDS011;60508;42.622;25.416;2022-09-09T16:29:11;9.77;;;2.72;;
45077;SDS011;60508;42.622;25.416;2022-09-09T16:31:40;13.82;;;3.10;;
45077;SDS011;60508;42.622;25.416;2022-09-09T16:34:07;10.50;;;2.67;;
45077;SDS011;60508;42.622;25.416;2022-09-09T16:36:35;6.05;;;2.25;;
45077;SDS011;60508;42.622;25.416;2022-09-09T16:39:04;6.93;;;2.38;;
45077;SDS011;60508;42.622;25.416;2022-09-09T16:41:32;7.85;;;3.10;;
45077;SDS011;60508;42.622;25.416;2022-09-09T16:43:59;5.30;;;2.40;;
45077;SDS011;60508;42.622;25.416;2022-09-09T16:46:28;4.32;;;2.55;;
45077;SDS011;60508;42.622;25.416;2022-09-09T16:48:55;6.78;;;2.85;;
45077;SDS011;60508;42.622;25.416;2022-09-09T16:51:24;3.73;;;2.77;;
45077;SDS011;60508;42.622;25.416;2022-09-09T16:53:52;5.05;;;2.83;;
45077;SDS011;60508;42.622;25.416;2022-09-09T16:56:20;9.18;;;2.70;;
45077;SDS011;60508;42.622;25.416;2022-09-09T16:58:51;18.45;;;3.28;;
45077;SDS011;60508;42.622;25.416;2022-09-09T17:01:22;11.30;;;3.40;;
45077;SDS011;60508;42.622;25.416;2022-09-09T17:03:52;10.18;;;3.05;;